createdAt,value
2022-08-26T00:03:34.249Z,100370.47
2022-08-26T00:08:31.618Z,100505.53
2022-08-26T00:13:34.766Z,100381.50
2022-08-26T00:18:31.267Z,100451.22
2022-08-26T00:23:32.812Z,100405.31
2022-08-26T00:28:27.416Z,100475.78
2022-08-26T00:33:49.160Z,100326.00
2022-08-26T00:38:48.342Z,100371.69
2022-08-26T00:43:47.339Z,100408.16
2022-08-26T00:48:55.607Z,100388.91
2022-08-26T00:54:03.712Z,100339.72
2022-08-26T00:59:06.230Z,100354.88
2022-08-26T01:04:02.432Z,100449.81
2022-08-26T01:09:00.852Z,100442.63
2022-08-26T01:14:00.728Z,100357.97
2022-08-26T01:19:01.814Z,100435.47
2022-08-26T01:24:00.759Z,100442.22
2022-08-26T01:28:58.734Z,100457.78
2022-08-26T01:33:57.589Z,100499.81
2022-08-26T01:38:54.176Z,100429.16
2022-08-26T01:43:53.041Z,100505.94
2022-08-26T01:48:54.362Z,100428.72
2022-08-26T01:53:48.550Z,100432.28
2022-08-26T01:58:54.080Z,100378.47
2022-08-26T02:04:06.009Z,100504.44
2022-08-26T02:09:03.656Z,100359.13
2022-08-26T02:14:04.143Z,100391.50
2022-08-26T02:19:00.914Z,100435.59
2022-08-26T02:24:27.360Z,100464.78
2022-08-26T02:29:33.078Z,100385.34
2022-08-26T02:34:33.110Z,100414.03
2022-08-26T02:39:40.574Z,100431.22
2022-08-26T02:44:48.446Z,100462.25
2022-08-26T02:49:47.865Z,100441.03
2022-08-26T02:54:43.756Z,100434.44
2022-08-26T02:59:40.854Z,100453.72
2022-08-26T03:04:41.110Z,100424.75
2022-08-26T03:09:53.143Z,100517.50
2022-08-26T03:14:48.532Z,100516.81
2022-08-26T03:19:42.386Z,100414.00
2022-08-26T03:24:39.029Z,100515.06
2022-08-26T03:29:51.547Z,100518.94
2022-08-26T03:34:49.121Z,100411.41
2022-08-26T03:39:45.028Z,100384.97
2022-08-26T03:44:42.003Z,100393.16
2022-08-26T03:49:41.062Z,100531.88
2022-08-26T03:54:45.777Z,100389.22
2022-08-26T03:59:45.657Z,100538.56
2022-08-26T04:04:48.438Z,100406.03
2022-08-26T04:09:46.238Z,100541.25
2022-08-26T04:14:45.028Z,100486.81
2022-08-26T04:19:42.568Z,100424.34
2022-08-26T04:24:40.186Z,100423.09
2022-08-26T04:29:41.602Z,100464.59
2022-08-26T04:34:42.094Z,100487.28
2022-08-26T04:39:36.677Z,100539.72
2022-08-26T04:44:31.770Z,100448.00
2022-08-26T04:49:35.093Z,100470.41
2022-08-26T04:54:37.089Z,100458.25
2022-08-26T04:59:30.910Z,100454.50
2022-08-26T05:04:24.871Z,100513.03
2022-08-26T05:09:20.588Z,100420.19
2022-08-26T05:14:15.205Z,100536.25
2022-08-26T05:19:12.413Z,100496.66
2022-08-26T05:24:09.425Z,100484.44
2022-08-26T05:29:14.020Z,100482.06
2022-08-26T05:34:09.691Z,100551.63
2022-08-26T05:39:07.688Z,100505.50
2022-08-26T05:44:19.124Z,100432.25
2022-08-26T05:49:19.963Z,100544.84
2022-08-26T05:55:02.774Z,100394.91
2022-08-26T06:00:26.571Z,100517.22
2022-08-26T06:05:26.722Z,100516.03
2022-08-26T06:10:32.482Z,100408.34
2022-08-26T06:15:33.633Z,100523.22
2022-08-26T06:20:38.237Z,100530.59
2022-08-26T06:26:11.332Z,100402.31
2022-08-26T06:31:40.135Z,100454.66
2022-08-26T06:36:48.723Z,100567.75
2022-08-26T06:42:10.938Z,100564.66
2022-08-26T06:48:14.901Z,100480.31
2022-08-26T06:53:57.511Z,100559.16
2022-08-26T06:59:03.692Z,100526.34
2022-08-26T07:09:44.659Z,100559.16
2022-08-26T07:27:04.871Z,100539.19
2022-08-26T07:32:13.385Z,100528.50
2022-08-26T07:37:42.973Z,100533.97
2022-08-26T07:42:49.609Z,100526.31
2022-08-26T07:47:48.828Z,100428.13
2022-08-26T07:52:48.048Z,100556.94
2022-08-26T07:57:42.765Z,100551.25
2022-08-26T08:02:49.732Z,100429.84
2022-08-26T08:08:27.091Z,100384.44
2022-08-26T08:13:24.763Z,100465.75
2022-08-26T08:18:31.917Z,100523.00
2022-08-26T08:23:34.956Z,100542.44
2022-08-26T08:28:36.954Z,100516.97
2022-08-26T08:33:35.258Z,100464.97
2022-08-26T08:38:56.659Z,100417.81
2022-08-26T08:44:07.146Z,100418.59
2022-08-26T08:49:04.502Z,100384.75
2022-08-26T08:54:10.064Z,100392.22
2022-08-26T08:59:52.207Z,100421.09
2022-08-26T09:05:22.439Z,100429.00
2022-08-26T09:10:56.451Z,100494.75
2022-08-26T09:16:20.333Z,100483.19
2022-08-26T09:22:01.606Z,100446.03
2022-08-26T09:27:09.035Z,100459.91
2022-08-26T09:32:33.238Z,100420.03
2022-08-26T09:38:17.403Z,100407.13
2022-08-26T09:43:22.595Z,100369.75
2022-08-26T09:48:37.167Z,100404.34
2022-08-26T09:53:38.820Z,100383.59
2022-08-26T09:58:45.706Z,100471.47
2022-08-26T10:03:51.280Z,100354.91
2022-08-26T10:09:00.232Z,100481.84
2022-08-26T10:14:07.344Z,100482.09
2022-08-26T10:19:09.635Z,100475.41
2022-08-26T10:24:11.762Z,100437.16
2022-08-26T10:29:14.825Z,100463.94
2022-08-26T10:34:15.867Z,100359.25
2022-08-26T10:39:28.417Z,100404.06
2022-08-26T10:44:28.590Z,100331.09
2022-08-26T10:49:23.703Z,100445.72
2022-08-26T10:54:33.320Z,100307.97
2022-08-26T10:59:46.688Z,100335.13
2022-08-26T11:05:07.325Z,100434.53
2022-08-26T11:10:12.559Z,100407.03
2022-08-26T11:15:09.792Z,100336.19
2022-08-26T11:20:17.974Z,100430.78
2022-08-26T11:25:14.949Z,100423.91
2022-08-26T11:30:18.324Z,100310.09
2022-08-26T11:35:52.285Z,100415.63
2022-08-26T11:40:59.946Z,100409.47
2022-08-26T11:46:11.721Z,100342.88
2022-08-26T11:51:35.902Z,100376.97
2022-08-26T11:56:40.942Z,100313.16
2022-08-26T12:01:42.459Z,100336.72
2022-08-26T12:06:56.081Z,100346.75
2022-08-26T12:12:22.557Z,100378.38
2022-08-26T12:17:33.325Z,100355.94
2022-08-26T12:22:36.274Z,100271.47
2022-08-26T12:28:00.120Z,100342.06
2022-08-26T12:33:22.445Z,100330.38
2022-08-26T12:38:27.823Z,100328.19
2022-08-26T12:43:59.723Z,100228.34
2022-08-26T12:49:20.834Z,100353.47
2022-08-26T12:59:50.610Z,100322.66
2022-08-26T13:04:56.520Z,100343.41
2022-08-26T13:10:01.155Z,100330.25
2022-08-26T13:14:54.888Z,100276.56
2022-08-26T13:19:51.665Z,100257.97
2022-08-26T13:24:48.453Z,100323.81
2022-08-26T13:29:45.044Z,100246.88
2022-08-26T13:35:05.728Z,100271.88
2022-08-26T13:40:34.390Z,100239.66
2022-08-26T13:45:40.828Z,100304.53
2022-08-26T13:55:46.267Z,100244.84
2022-08-26T14:00:49.490Z,100258.41
2022-08-26T14:05:54.627Z,100202.03
2022-08-26T14:10:55.402Z,100268.28
2022-08-26T14:16:09.222Z,100192.38
2022-08-26T14:21:14.865Z,100236.97
2022-08-26T14:26:11.705Z,100226.69
2022-08-26T14:31:42.703Z,100263.72
2022-08-26T14:36:52.849Z,100235.84
2022-08-26T14:42:00.232Z,100289.09
2022-08-26T14:52:56.380Z,100315.31
2022-08-26T14:58:04.476Z,100315.25
2022-08-26T15:03:07.719Z,100229.19
2022-08-26T15:08:27.672Z,100283.28
2022-08-26T15:18:43.723Z,100233.47
2022-08-26T15:23:47.872Z,100222.63
2022-08-26T15:29:03.090Z,100324.88
2022-08-26T15:34:51.423Z,100260.97
2022-08-26T15:40:26.161Z,100316.13
2022-08-26T15:46:03.916Z,100229.41
2022-08-26T15:51:46.068Z,100186.03
2022-08-26T16:03:04.600Z,100311.81
2022-08-26T16:14:46.157Z,100280.53
2022-08-26T16:20:22.369Z,100213.13
2022-08-26T16:25:25.793Z,100283.72
2022-08-26T16:30:26.178Z,100224.50
2022-08-26T16:35:39.028Z,100240.84
2022-08-26T16:41:18.268Z,100288.56
2022-08-26T16:52:30.282Z,100246.38
2022-08-26T16:57:53.692Z,100341.50
2022-08-26T17:09:10.831Z,100243.50
2022-08-26T17:14:12.256Z,100316.75
2022-08-26T17:19:14.901Z,100357.63
2022-08-26T17:24:10.545Z,100241.66
2022-08-26T17:29:13.799Z,100358.41
2022-08-26T17:34:23.482Z,100325.03
2022-08-26T17:39:17.709Z,100279.97
2022-08-26T17:44:23.014Z,100362.31
2022-08-26T17:49:20.193Z,100360.78
2022-08-26T17:54:32.966Z,100261.91
2022-08-26T17:59:39.030Z,100305.72
2022-08-26T18:04:51.045Z,100294.63
2022-08-26T18:09:49.835Z,100355.47
2022-08-26T18:14:49.952Z,100379.81
2022-08-26T18:20:27.196Z,100266.69
2022-08-26T18:25:35.012Z,100295.22
2022-08-26T18:30:45.264Z,100394.47
2022-08-26T18:36:37.126Z,100278.66
2022-08-26T18:41:29.888Z,100314.31
2022-08-26T18:46:35.871Z,100363.56
2022-08-26T18:51:37.801Z,100406.09
2022-08-26T18:56:45.768Z,100261.28
2022-08-26T19:01:56.140Z,100408.00
2022-08-26T19:07:15.824Z,100390.56
2022-08-26T19:12:10.994Z,100398.25
2022-08-26T19:17:24.628Z,100345.72
2022-08-26T19:22:21.372Z,100430.09
2022-08-26T19:27:19.953Z,100422.50
2022-08-26T19:32:24.362Z,100321.00
2022-08-26T19:37:24.001Z,100426.22
2022-08-26T19:42:34.628Z,100396.09
2022-08-26T19:47:36.695Z,100440.34
2022-08-26T20:04:25.148Z,100407.25
2022-08-26T20:09:58.251Z,100445.25
2022-08-26T20:15:09.471Z,100428.41
2022-08-26T20:21:20.660Z,100292.78
2022-08-26T20:27:21.028Z,100389.28
2022-08-26T20:32:45.235Z,100401.09
2022-08-26T20:37:58.562Z,100425.25
2022-08-26T20:43:08.000Z,100426.88
2022-08-26T20:50:22.062Z,100314.25
2022-08-26T20:56:44.138Z,100467.22
2022-08-26T21:02:11.013Z,100359.63
2022-08-26T21:07:38.780Z,100464.88
2022-08-26T21:12:44.652Z,100334.13
2022-08-26T21:17:51.259Z,100445.72
2022-08-26T21:23:29.381Z,100406.69
2022-08-26T21:35:47.415Z,100466.00
2022-08-26T21:41:45.303Z,100464.47
2022-08-26T21:47:22.624Z,100467.38
2022-08-26T22:05:27.311Z,100478.59
2022-08-26T22:11:10.055Z,100342.16
2022-08-26T22:16:25.041Z,100472.50
2022-08-26T22:21:35.796Z,100403.66
2022-08-26T22:27:01.388Z,100345.28
2022-08-26T22:32:03.061Z,100436.66
2022-08-26T22:37:30.551Z,100459.41
2022-08-26T22:43:00.081Z,100378.25
2022-08-26T22:48:27.825Z,100451.84
2022-08-26T22:54:07.555Z,100331.75
2022-08-26T22:59:18.698Z,100390.56
2022-08-26T23:04:52.541Z,100289.94
2022-08-26T23:10:13.163Z,100453.09
2022-08-26T23:21:23.426Z,100453.91
2022-08-26T23:26:33.241Z,100448.81
2022-08-26T23:32:04.389Z,100327.84
2022-08-26T23:43:52.341Z,100300.34
2022-08-26T23:49:08.329Z,100328.69
